Barnerville, New York
Current Conditions -  °F | °C
As of 8:55 PM on Monday 24 Nov 2014 (Local Time) from KNY0 Reporting Station
Clear Clear  
Wind Chill: 60°   Ceiling: Unl
Heat Index: 60°   Visibility: 10mi
Dew Point: 47°   Wind: 16mph
Humidity: 63%   Direction: 210°SSW
Pressure: 29.55"   Gusts: 22mph
Location:  42.7023°N, 74.392°W
Report Text: KNY0 250155Z AUTO 21014G19KT 10SM CLR 16/09 A2955 RMK AO2 T01560086
Loading
Personal Weather Stations






























Interactive Weather Map New forecast layout! Learn more

10-Day Weather Forecast

Advertisements
Track Severe Weather on mobile